createdAt,value
2019-04-20T00:01:31.953Z,3.93
2019-04-20T00:04:01.030Z,4.03
2019-04-20T00:06:38.154Z,4.13
2019-04-20T00:09:08.828Z,4.10
2019-04-20T00:11:45.866Z,4.37
2019-04-20T00:14:13.776Z,4.00
2019-04-20T00:16:39.936Z,4.07
2019-04-20T00:19:10.671Z,4.03
2019-04-20T00:21:49.568Z,4.30
2019-04-20T00:24:42.654Z,3.83
2019-04-20T00:27:37.051Z,3.93
2019-04-20T00:30:04.262Z,3.97
2019-04-20T00:32:35.961Z,3.70
2019-04-20T00:34:51.157Z,4.47
2019-04-20T00:37:21.193Z,3.73
2019-04-20T00:39:50.878Z,4.53
2019-04-20T00:42:32.563Z,4.80
2019-04-20T00:45:00.613Z,4.20
2019-04-20T00:47:39.761Z,4.27
2019-04-20T00:50:09.215Z,3.87
2019-04-20T00:52:41.385Z,4.17
2019-04-20T00:55:00.079Z,4.20
2019-04-20T00:57:41.881Z,4.17
2019-04-20T01:00:21.496Z,4.53
2019-04-20T01:02:45.495Z,4.33
2019-04-20T01:05:27.617Z,19.20
2019-04-20T01:08:00.533Z,5.23
2019-04-20T01:10:37.114Z,4.90
2019-04-20T01:13:11.288Z,4.43
2019-04-20T01:15:46.207Z,4.67
2019-04-20T01:18:04.088Z,4.57
2019-04-20T01:20:33.420Z,4.90
2019-04-20T01:23:07.600Z,4.83
2019-04-20T01:25:39.334Z,4.70
2019-04-20T01:28:24.560Z,4.63
2019-04-20T01:30:44.633Z,5.00
2019-04-20T01:33:25.864Z,4.97
2019-04-20T01:35:57.737Z,4.97
2019-04-20T01:38:30.476Z,5.50
2019-04-20T01:40:44.753Z,5.10
2019-04-20T01:43:14.575Z,5.13
2019-04-20T01:45:45.745Z,5.10
2019-04-20T01:48:22.024Z,5.00
2019-04-20T01:50:57.384Z,5.13
2019-04-20T01:53:41.159Z,4.93
2019-04-20T01:56:12.458Z,5.90
2019-04-20T01:59:02.750Z,5.77
2019-04-20T02:01:40.193Z,5.37
2019-04-20T02:04:23.788Z,5.40
2019-04-20T02:06:50.356Z,5.90
2019-04-20T02:09:21.156Z,5.63
2019-04-20T02:11:50.815Z,5.70
2019-04-20T02:14:29.555Z,5.27
2019-04-20T02:17:05.394Z,5.40
2019-04-20T02:19:39.281Z,4.60
2019-04-20T02:22:09.930Z,4.73
2019-04-20T02:24:29.905Z,4.90
2019-04-20T02:26:59.848Z,5.07
2019-04-20T02:29:50.983Z,5.20
2019-04-20T02:32:47.673Z,5.10
2019-04-20T02:35:29.932Z,5.10
2019-04-20T02:40:39.680Z,5.20
2019-04-20T02:43:09.565Z,5.10
2019-04-20T02:45:49.070Z,4.80
2019-04-20T02:48:10.029Z,5.13
2019-04-20T02:50:38.660Z,5.00
2019-04-20T02:53:17.349Z,5.30
2019-04-20T02:55:41.930Z,5.47
2019-04-20T02:58:10.811Z,5.20
2019-04-20T03:00:36.168Z,4.93
2019-04-20T03:02:57.113Z,4.70
2019-04-20T03:05:29.864Z,4.50
2019-04-20T03:08:08.993Z,4.90
2019-04-20T03:10:46.406Z,4.80
2019-04-20T03:13:15.855Z,4.70
2019-04-20T03:15:50.673Z,4.63
2019-04-20T03:18:19.216Z,4.73
2019-04-20T03:20:55.075Z,4.20
2019-04-20T03:23:33.535Z,4.47
2019-04-20T03:26:05.423Z,5.00
2019-04-20T03:29:05.328Z,4.50
2019-04-20T03:32:17.265Z,4.87
2019-04-20T03:34:47.536Z,5.27
2019-04-20T03:37:05.050Z,4.50
2019-04-20T03:39:21.956Z,5.00
2019-04-20T03:41:43.217Z,4.50
2019-04-20T03:44:12.664Z,4.53
2019-04-20T03:46:47.902Z,5.10
2019-04-20T03:49:38.447Z,4.50
2019-04-20T03:52:23.419Z,4.30
2019-04-20T03:55:16.429Z,4.53
2019-04-20T03:58:10.743Z,4.63
2019-04-20T04:01:14.194Z,4.53
2019-04-20T04:03:58.784Z,4.90
2019-04-20T04:06:17.803Z,4.90
2019-04-20T04:08:55.016Z,4.47
2019-04-20T04:11:27.550Z,4.57
2019-04-20T04:13:48.118Z,4.90
2019-04-20T04:16:21.578Z,4.53
2019-04-20T04:19:02.849Z,4.80
2019-04-20T04:21:39.562Z,4.80
2019-04-20T04:24:07.292Z,4.20
2019-04-20T04:26:56.248Z,4.27
2019-04-20T04:29:39.689Z,4.20
2019-04-20T04:32:12.798Z,4.30
2019-04-20T04:34:34.716Z,4.60
2019-04-20T04:37:06.791Z,4.33
2019-04-20T04:39:37.768Z,4.03
2019-04-20T04:42:16.944Z,4.17
2019-04-20T04:44:38.896Z,4.40
2019-04-20T04:47:02.730Z,4.47
2019-04-20T04:49:35.260Z,4.53
2019-04-20T04:52:06.166Z,4.87
2019-04-20T04:54:40.045Z,4.27
2019-04-20T04:57:05.306Z,4.77
2019-04-20T04:59:36.229Z,4.50
2019-04-20T05:02:05.727Z,4.73
2019-04-20T05:07:56.471Z,7.77
2019-04-20T05:10:16.296Z,4.40
2019-04-20T05:12:46.233Z,4.67
2019-04-20T05:15:32.535Z,4.23
2019-04-20T05:18:09.990Z,4.43
2019-04-20T05:20:42.636Z,4.50
2019-04-20T05:23:26.967Z,4.63
2019-04-20T05:26:14.335Z,4.67
2019-04-20T05:28:36.842Z,4.40
2019-04-20T05:30:59.971Z,4.70
2019-04-20T05:33:48.529Z,4.73
2019-04-20T05:36:20.053Z,4.30
2019-04-20T05:38:55.767Z,4.37
2019-04-20T05:41:21.910Z,4.27
2019-04-20T05:44:00.747Z,4.57
2019-04-20T05:46:37.248Z,4.40
2019-04-20T05:49:20.632Z,4.37
2019-04-20T05:51:40.896Z,4.43
2019-04-20T05:54:13.521Z,4.73
2019-04-20T05:56:46.383Z,4.97
2019-04-20T05:59:15.271Z,4.40
2019-04-20T06:01:53.189Z,4.57
2019-04-20T06:04:22.468Z,4.43
2019-04-20T06:06:56.497Z,4.70
2019-04-20T06:09:28.687Z,4.60
2019-04-20T06:12:07.689Z,4.37
2019-04-20T06:14:39.514Z,4.77
2019-04-20T06:17:51.511Z,4.60
2019-04-20T06:20:21.543Z,4.80
2019-04-20T06:22:59.963Z,4.47
2019-04-20T06:28:02.896Z,5.20
2019-04-20T06:30:33.186Z,5.00
2019-04-20T06:34:01.388Z,4.80
2019-04-20T06:36:23.486Z,4.83
2019-04-20T06:39:00.454Z,4.70
2019-04-20T06:41:32.532Z,4.97
2019-04-20T06:43:54.199Z,4.67
2019-04-20T06:46:22.304Z,5.07
2019-04-20T06:49:04.395Z,4.73
2019-04-20T06:51:38.848Z,4.83
2019-04-20T06:54:04.719Z,4.70
2019-04-20T06:56:42.515Z,5.40
2019-04-20T06:59:21.523Z,4.80
2019-04-20T07:01:57.015Z,4.43
2019-04-20T07:06:56.593Z,4.47
2019-04-20T07:09:38.646Z,4.23
2019-04-20T07:11:50.446Z,4.70
2019-04-20T07:14:11.088Z,4.17
2019-04-20T07:17:09.474Z,5.73
2019-04-20T07:19:39.937Z,4.40
2019-04-20T07:27:22.949Z,4.37
2019-04-20T07:30:09.451Z,4.10
2019-04-20T07:32:17.822Z,4.00
2019-04-20T07:34:56.853Z,4.50
2019-04-20T07:40:06.003Z,4.53
2019-04-20T07:42:43.695Z,3.87
2019-04-20T07:45:19.913Z,3.53
2019-04-20T07:50:10.090Z,3.60
2019-04-20T07:52:33.986Z,3.27
2019-04-20T07:57:41.945Z,3.50
2019-04-20T08:00:19.901Z,3.70
2019-04-20T08:03:11.923Z,3.57
2019-04-20T08:05:45.710Z,3.50
2019-04-20T08:08:27.177Z,3.20
2019-04-20T08:10:54.353Z,3.30
2019-04-20T08:13:40.346Z,3.60
2019-04-20T08:16:00.793Z,3.50
2019-04-20T08:21:03.838Z,3.70
2019-04-20T08:23:34.854Z,3.70
2019-04-20T08:26:00.504Z,3.67
2019-04-20T08:28:36.076Z,4.10
2019-04-20T08:31:38.592Z,3.60
2019-04-20T08:34:38.337Z,3.40
2019-04-20T08:36:52.656Z,3.53
2019-04-20T08:41:56.349Z,3.23
2019-04-20T08:47:05.164Z,3.30
2019-04-20T08:49:57.102Z,3.10
2019-04-20T08:52:23.057Z,2.93
2019-04-20T08:54:34.447Z,2.90
2019-04-20T08:56:55.365Z,3.27
2019-04-20T08:59:23.326Z,3.00
2019-04-20T09:01:53.487Z,3.60
2019-04-20T09:04:37.324Z,4.13
2019-04-20T09:07:08.377Z,3.50
2019-04-20T09:09:49.619Z,3.53
2019-04-20T09:12:21.197Z,3.30
2019-04-20T09:14:38.484Z,3.63
2019-04-20T09:17:26.439Z,3.10
2019-04-20T09:19:55.730Z,3.03
2019-04-20T09:23:07.113Z,2.70
2019-04-20T09:25:57.589Z,3.00
2019-04-20T09:28:28.518Z,2.87
2019-04-20T09:31:22.615Z,2.77
2019-04-20T09:34:20.344Z,2.97
2019-04-20T09:36:49.370Z,2.73
2019-04-20T09:39:44.980Z,2.80
2019-04-20T09:42:34.519Z,2.50
2019-04-20T09:45:07.578Z,2.57
2019-04-20T09:47:43.592Z,2.50
2019-04-20T09:50:29.265Z,2.77
2019-04-20T09:53:03.655Z,2.30
2019-04-20T09:55:28.848Z,3.47
2019-04-20T09:58:06.291Z,2.70
2019-04-20T10:00:43.808Z,2.60
2019-04-20T10:02:57.995Z,2.30
2019-04-20T10:05:29.578Z,2.60
2019-04-20T10:08:03.341Z,2.43
2019-04-20T10:10:35.780Z,2.53
2019-04-20T10:13:09.173Z,2.70
2019-04-20T10:15:39.654Z,2.37
2019-04-20T10:18:15.366Z,2.40
2019-04-20T10:20:45.377Z,2.53
2019-04-20T10:23:16.469Z,2.20
2019-04-20T10:25:46.823Z,2.40
2019-04-20T10:28:16.314Z,2.40
2019-04-20T10:30:46.326Z,2.20
2019-04-20T10:33:15.978Z,2.50
2019-04-20T10:35:45.691Z,2.03
2019-04-20T10:38:23.275Z,2.23
2019-04-20T10:41:03.330Z,2.00
2019-04-20T10:43:25.951Z,2.40
2019-04-20T10:45:57.087Z,2.37
2019-04-20T10:48:27.011Z,2.10
2019-04-20T10:50:56.881Z,2.03
2019-04-20T10:53:27.947Z,2.13
2019-04-20T10:55:57.815Z,2.30
2019-04-20T10:58:27.527Z,2.03
2019-04-20T11:00:57.671Z,2.00
2019-04-20T11:03:28.811Z,2.07
2019-04-20T11:05:58.976Z,2.20
2019-04-20T11:08:28.744Z,4.73
2019-04-20T11:11:09.096Z,2.33
2019-04-20T11:13:29.850Z,2.07
2019-04-20T11:16:00.458Z,2.10
2019-04-20T11:18:31.299Z,2.33
2019-04-20T11:21:01.503Z,2.40
2019-04-20T11:23:32.125Z,2.13
2019-04-20T11:26:02.226Z,1.90
2019-04-20T11:28:34.410Z,2.10
2019-04-20T11:31:04.226Z,1.90
2019-04-20T11:33:34.243Z,1.90
2019-04-20T11:36:05.217Z,2.47
2019-04-20T11:38:35.296Z,2.43
2019-04-20T11:41:14.456Z,2.17
2019-04-20T11:43:38.034Z,1.90
2019-04-20T11:46:09.029Z,2.03
2019-04-20T11:48:39.435Z,1.90
2019-04-20T11:51:09.486Z,4.60
2019-04-20T11:53:40.362Z,2.67
2019-04-20T11:56:15.996Z,3.20
2019-04-20T11:58:42.815Z,2.30
2019-04-20T12:01:44.094Z,2.07
2019-04-20T12:04:21.550Z,1.67
2019-04-20T12:06:39.470Z,1.73
2019-04-20T12:09:12.929Z,1.80
2019-04-20T12:11:56.004Z,1.70
2019-04-20T12:14:14.471Z,2.03
2019-04-20T12:16:45.747Z,1.77
2019-04-20T12:19:15.686Z,2.53
2019-04-20T12:21:45.624Z,1.80
2019-04-20T12:24:16.419Z,1.80
2019-04-20T12:26:46.995Z,1.90
2019-04-20T12:29:17.369Z,1.70
2019-04-20T12:31:51.157Z,1.70
2019-04-20T12:34:20.508Z,1.87
2019-04-20T12:36:51.188Z,1.60
2019-04-20T12:39:22.239Z,1.70
2019-04-20T12:41:56.497Z,1.87
2019-04-20T12:44:24.104Z,2.23
2019-04-20T12:46:54.050Z,2.57
2019-04-20T12:49:23.666Z,1.70
2019-04-20T12:51:58.002Z,1.60
2019-04-20T12:54:25.351Z,1.90
2019-04-20T12:56:56.066Z,1.70
2019-04-20T12:59:27.543Z,1.70
2019-04-20T13:02:01.653Z,1.60
2019-04-20T13:04:33.254Z,1.90
2019-04-20T13:07:03.850Z,1.70
2019-04-20T13:09:44.312Z,2.20
2019-04-20T13:12:21.658Z,1.80
2019-04-20T13:15:22.358Z,2.40
2019-04-20T13:17:52.868Z,1.83
2019-04-20T13:20:28.022Z,1.90
2019-04-20T13:22:59.995Z,1.77
2019-04-20T13:25:30.560Z,1.90
2019-04-20T13:28:01.040Z,1.83
2019-04-20T13:30:32.134Z,2.10
2019-04-20T13:33:03.597Z,2.10
2019-04-20T13:35:34.285Z,2.00
2019-04-20T13:38:04.656Z,2.27
2019-04-20T13:40:35.406Z,2.17
2019-04-20T13:43:05.777Z,1.80
2019-04-20T13:45:37.063Z,1.90
2019-04-20T13:48:08.785Z,2.10
2019-04-20T13:50:40.070Z,2.37
2019-04-20T13:53:09.678Z,2.23
2019-04-20T13:55:40.108Z,2.50
2019-04-20T13:58:16.015Z,2.23
2019-04-20T14:01:03.364Z,2.30
2019-04-20T14:03:34.587Z,2.43
2019-04-20T14:06:06.893Z,2.63
2019-04-20T14:08:37.107Z,2.30
2019-04-20T14:11:07.340Z,2.37
2019-04-20T14:13:43.509Z,3.20
2019-04-20T14:16:14.357Z,3.00
2019-04-20T14:18:45.015Z,2.90
2019-04-20T14:21:14.722Z,2.60
2019-04-20T14:23:45.342Z,2.27
2019-04-20T14:26:17.293Z,2.53
2019-04-20T14:28:47.137Z,2.43
2019-04-20T14:31:17.519Z,2.93
2019-04-20T14:33:48.771Z,2.87
2019-04-20T14:36:19.091Z,2.87
2019-04-20T14:38:49.901Z,2.97
2019-04-20T14:41:22.373Z,3.60
2019-04-20T14:43:53.185Z,3.10
2019-04-20T14:46:26.165Z,4.97
2019-04-20T14:48:56.583Z,3.70
2019-04-20T14:51:27.834Z,3.40
2019-04-20T14:53:57.537Z,3.60
2019-04-20T14:56:29.317Z,3.20
2019-04-20T14:59:19.884Z,3.53
2019-04-20T15:01:54.699Z,3.70
2019-04-20T15:04:28.596Z,4.20
2019-04-20T15:06:57.876Z,4.17
2019-04-20T15:09:28.689Z,4.07
2019-04-20T15:11:59.031Z,3.83
2019-04-20T15:14:29.146Z,3.90
2019-04-20T15:16:58.683Z,4.20
2019-04-20T15:19:36.603Z,5.10
2019-04-20T15:22:09.429Z,3.70
2019-04-20T15:24:39.738Z,3.90
2019-04-20T15:27:10.164Z,3.53
2019-04-20T15:29:40.132Z,3.80
2019-04-20T15:32:10.214Z,4.30
2019-04-20T15:34:40.228Z,4.97
2019-04-20T15:37:12.022Z,4.20
2019-04-20T15:39:43.180Z,11.93
2019-04-20T15:42:12.704Z,4.30
2019-04-20T15:44:43.027Z,4.07
2019-04-20T15:47:17.578Z,3.77
2019-04-20T15:49:47.028Z,4.27
2019-04-20T15:52:22.359Z,4.10
2019-04-20T15:54:47.994Z,3.90
2019-04-20T15:57:21.728Z,4.20
2019-04-20T15:59:49.015Z,4.10
2019-04-20T16:02:25.157Z,3.83
2019-04-20T16:05:14.410Z,4.27
2019-04-20T16:07:50.325Z,3.70
2019-04-20T16:10:17.070Z,3.87
2019-04-20T16:12:46.926Z,3.60
2019-04-20T16:15:17.769Z,3.80
2019-04-20T16:17:51.613Z,3.77
2019-04-20T16:20:23.626Z,3.73
2019-04-20T16:22:54.348Z,3.23
2019-04-20T16:25:31.936Z,3.50
2019-04-20T16:28:01.673Z,3.70
2019-04-20T16:30:31.779Z,3.30
2019-04-20T16:33:02.715Z,3.03
2019-04-20T16:35:34.221Z,3.10
2019-04-20T16:38:04.447Z,2.90
2019-04-20T16:40:35.661Z,3.10
2019-04-20T16:43:15.825Z,3.10
2019-04-20T16:45:37.186Z,3.20
2019-04-20T16:48:08.480Z,2.93
2019-04-20T16:50:38.340Z,2.90
2019-04-20T16:53:08.871Z,3.27
2019-04-20T16:55:38.888Z,3.50
2019-04-20T16:58:10.220Z,3.37
2019-04-20T17:00:41.149Z,4.10
2019-04-20T17:03:11.198Z,4.93
2019-04-20T17:05:41.250Z,4.73
2019-04-20T17:08:11.281Z,3.73
2019-04-20T17:10:41.809Z,4.13
2019-04-20T17:13:11.617Z,3.77
2019-04-20T17:15:43.439Z,4.17
2019-04-20T17:18:13.710Z,4.10
2019-04-20T17:20:44.319Z,4.87
2019-04-20T17:23:15.063Z,4.90
2019-04-20T17:25:46.080Z,4.10
2019-04-20T17:28:33.349Z,4.03
2019-04-20T17:31:19.771Z,4.07
2019-04-20T17:34:04.740Z,4.10
2019-04-20T17:36:27.793Z,4.00
2019-04-20T17:38:59.737Z,4.20
2019-04-20T17:42:00.150Z,5.30
2019-04-20T17:44:17.321Z,3.77
2019-04-20T17:46:43.918Z,4.10
2019-04-20T17:49:15.869Z,3.30
2019-04-20T17:51:58.095Z,3.10
2019-04-20T17:54:23.505Z,3.70
2019-04-20T17:56:54.277Z,3.20
2019-04-20T17:59:24.328Z,3.30
2019-04-20T18:02:38.330Z,3.40
2019-04-20T18:05:32.831Z,3.77
2019-04-20T18:08:08.109Z,3.13
2019-04-20T18:10:31.742Z,5.70
2019-04-20T18:12:50.201Z,4.50
2019-04-20T18:15:36.042Z,5.27
2019-04-20T18:18:28.316Z,3.47
2019-04-20T18:21:17.097Z,3.30
2019-04-20T18:23:50.304Z,3.47
2019-04-20T18:26:39.327Z,3.70
2019-04-20T18:29:10.721Z,3.30
2019-04-20T18:31:41.768Z,3.57
2019-04-20T18:34:29.151Z,3.93
2019-04-20T18:37:00.626Z,3.23
2019-04-20T18:39:38.699Z,3.00
2019-04-20T18:42:14.286Z,2.70
2019-04-20T18:44:55.893Z,3.57
2019-04-20T18:47:30.142Z,4.03
2019-04-20T18:49:49.181Z,4.27
2019-04-20T18:52:09.511Z,4.00
2019-04-20T18:54:43.842Z,2.90
2019-04-20T18:57:14.333Z,2.87
2019-04-20T18:59:47.815Z,2.80
2019-04-20T19:02:19.947Z,2.60
2019-04-20T19:04:45.781Z,2.50
2019-04-20T19:07:15.542Z,2.73
2019-04-20T19:09:45.119Z,2.93
2019-04-20T19:12:16.574Z,3.33
2019-04-20T19:15:12.082Z,2.70
2019-04-20T19:18:04.290Z,2.70
2019-04-20T19:20:32.915Z,3.20
2019-04-20T19:23:04.003Z,3.47
2019-04-20T19:25:37.501Z,3.23
2019-04-20T19:28:14.540Z,3.17
2019-04-20T19:31:00.098Z,3.20
2019-04-20T19:33:30.931Z,2.87
2019-04-20T19:35:57.368Z,3.40
2019-04-20T19:38:29.509Z,3.17
2019-04-20T19:41:02.063Z,2.80
2019-04-20T19:43:31.676Z,3.20
2019-04-20T19:46:35.584Z,3.23
2019-04-20T19:48:40.710Z,3.60
2019-04-20T19:51:26.933Z,4.20
2019-04-20T19:53:56.326Z,3.60
2019-04-20T19:56:26.391Z,3.57
2019-04-20T19:58:55.248Z,4.30
2019-04-20T20:01:11.460Z,3.67
2019-04-20T20:03:43.759Z,3.77
2019-04-20T20:06:24.140Z,3.33
2019-04-20T20:08:53.163Z,4.20
2019-04-20T20:11:27.675Z,4.00
2019-04-20T20:13:53.480Z,4.70
2019-04-20T20:16:30.309Z,5.20
2019-04-20T20:19:07.450Z,5.03
2019-04-20T20:21:38.587Z,4.93
2019-04-20T20:23:57.845Z,4.60
2019-04-20T20:26:36.200Z,4.30
2019-04-20T20:29:10.949Z,4.40
2019-04-20T20:31:48.618Z,5.87
2019-04-20T20:34:12.921Z,5.70
2019-04-20T20:36:43.752Z,9.47
2019-04-20T20:39:15.737Z,7.70
2019-04-20T20:41:53.411Z,7.73
2019-04-20T20:44:26.497Z,5.83
2019-04-20T20:46:55.380Z,5.80
2019-04-20T20:49:32.755Z,5.07
2019-04-20T20:52:08.329Z,5.63
2019-04-20T20:54:36.426Z,5.70
2019-04-20T20:56:59.843Z,5.97
2019-04-20T20:59:34.775Z,5.90
2019-04-20T21:02:06.457Z,5.37
2019-04-20T21:04:31.594Z,5.30
2019-04-20T21:07:02.731Z,5.10
2019-04-20T21:09:33.425Z,4.90
2019-04-20T21:12:08.463Z,5.80
2019-04-20T21:14:38.407Z,5.20
2019-04-20T21:17:15.205Z,4.70
2019-04-20T21:19:53.393Z,4.77
2019-04-20T21:22:18.530Z,4.30
2019-04-20T21:24:42.162Z,4.30
2019-04-20T21:27:16.695Z,4.30
2019-04-20T21:29:50.523Z,4.00
2019-04-20T21:32:19.462Z,4.23
2019-04-20T21:34:51.859Z,3.53
2019-04-20T21:37:22.483Z,3.60
2019-04-20T21:39:55.379Z,4.17
2019-04-20T21:42:26.432Z,4.00
2019-04-20T21:45:04.417Z,7.70
2019-04-20T21:47:34.680Z,4.53
2019-04-20T21:50:17.029Z,4.10
2019-04-20T21:52:40.782Z,4.10
2019-04-20T21:55:06.076Z,4.27
2019-04-20T21:57:42.054Z,3.83
2019-04-20T22:00:23.752Z,4.20
2019-04-20T22:02:54.146Z,4.70
2019-04-20T22:05:15.730Z,4.53
2019-04-20T22:07:46.404Z,4.53
2019-04-20T22:10:18.984Z,4.30
2019-04-20T22:12:52.667Z,4.87
2019-04-20T22:15:26.096Z,4.90
2019-04-20T22:17:50.596Z,4.50
2019-04-20T22:20:32.151Z,4.73
2019-04-20T22:23:02.964Z,4.23
2019-04-20T22:25:46.256Z,4.83
2019-04-20T22:27:58.553Z,4.20
2019-04-20T22:30:28.132Z,3.73
2019-04-20T22:33:04.055Z,3.50
2019-04-20T22:35:36.004Z,3.20
2019-04-20T22:38:37.628Z,3.73
2019-04-20T22:41:13.894Z,4.10
2019-04-20T22:43:40.329Z,5.13
2019-04-20T22:46:09.896Z,4.50
2019-04-20T22:48:47.657Z,4.13
2019-04-20T22:51:28.186Z,4.30
2019-04-20T22:53:51.988Z,3.70
2019-04-20T22:56:29.969Z,3.87
2019-04-20T22:58:55.617Z,3.60
2019-04-20T23:01:27.748Z,3.43
2019-04-20T23:03:48.576Z,3.67
2019-04-20T23:06:18.874Z,3.40
2019-04-20T23:08:57.583Z,3.70
2019-04-20T23:11:26.419Z,4.57
2019-04-20T23:13:53.013Z,4.20
2019-04-20T23:16:23.088Z,3.57
2019-04-20T23:18:54.265Z,3.53
2019-04-20T23:21:24.010Z,3.77
2019-04-20T23:24:00.446Z,3.93
2019-04-20T23:26:33.276Z,4.00
2019-04-20T23:29:00.814Z,3.80
2019-04-20T23:31:32.161Z,4.30
2019-04-20T23:34:10.094Z,3.67
2019-04-20T23:36:39.018Z,4.10
2019-04-20T23:39:08.769Z,3.83
2019-04-20T23:41:43.510Z,3.80
2019-04-20T23:44:29.339Z,3.97
2019-04-20T23:47:15.583Z,3.90
2019-04-20T23:50:03.363Z,4.00
2019-04-20T23:52:42.427Z,3.90
2019-04-20T23:54:58.892Z,3.67
2019-04-20T23:57:26.042Z,3.83
2019-04-20T23:59:56.232Z,3.90
